PWSweather.com
Personal Weather Stations
Station Observations
SHAHALMS1
Eftra, Falkenberg, HA

EftraFalkenberg, HA

Lat: 56.85, Lon: 12.65

Elevation: 140

Station Type:

http://hem.passagen.se/risarp101

High Low Average
Temperature 71.8°F22.1°C 57.2°F14.0°C 64.1°F17.8°C
Dew Point 61.2°F16.2°C 52.6°F11.4°C 58.1°F14.5°C
Winds 19.2 mph 30.9 kmh Calm Calm 6.0 mph E9.7 kmh E
Wind Gusts 23.6 mph38.0 kmh -- 9.0 mph14.5 kmh
Humidity 90% 63% 81%
Pressure 29.89 in1012.2 mb 29.71 in1006.1 mb -
Precipitation 0.09 in2.3 mm - -
Hour Temp Dew Point Humidity Winds Wind Gusts Pressure Precip Precip Rate Daily Precip Total
12:01 AM 57.9°F14.4°C 52.8°F11.6°C 83% 3.4 mph E5.5 kmh E 9.3 mph15.0 kmh 29.89 in1012.2 mb 0.00 in0.0 mm 0.00 in0.0 mm 0.00 in0.0 mm
12:15 AM 57.7°F14.3°C 52.6°F11.4°C 83% 2.3 mph E3.7 kmh E 7.9 mph12.7 kmh 29.86 in1011.2 mb 0.00 in0.0 mm 0.00 in0.0 mm 0.00 in0.0 mm
12:30 AM 57.7°F14.3°C 52.6°F11.4°C 83% 4.0 mph E6.4 kmh E 11.5 mph18.5 kmh 29.86 in1011.2 mb 0.00 in0.0 mm 0.00 in0.0 mm 0.00 in0.0 mm
12:45 AM 57.7°F14.3°C 52.9°F11.6°C 84% 5.4 mph E8.7 kmh E 14.3 mph23.0 kmh 29.86 in1011.2 mb 0.00 in0.0 mm 0.00 in0.0 mm 0.00 in0.0 mm
01:00 AM 57.6°F14.2°C 52.8°F11.6°C 84% 5.0 mph E8.0 kmh E 10.0 mph16.1 kmh 29.83 in1010.2 mb 0.00 in0.0 mm 0.00 in0.0 mm 0.00 in0.0 mm
01:15 AM 57.6°F14.2°C 53.1°F11.7°C 85% 5.9 mph E9.5 kmh E 12.9 mph20.8 kmh 29.83 in1010.2 mb 0.00 in0.0 mm 0.00 in0.0 mm 0.00 in0.0 mm
01:30 AM 57.4°F14.1°C 52.9°F11.6°C 85% 5.5 mph E8.9 kmh E 10.0 mph16.1 kmh 29.83 in1010.2 mb 0.00 in0.0 mm 0.00 in0.0 mm 0.00 in0.0 mm
01:45 AM 57.4°F14.1°C 52.9°F11.6°C 85% 5.6 mph E9.0 kmh E 11.8 mph19.0 kmh 29.83 in1010.2 mb 0.00 in0.0 mm 0.00 in0.0 mm 0.00 in0.0 mm
02:00 AM 57.2°F14.0°C 53.0°F11.7°C 86% 5.9 mph E9.5 kmh E 13.6 mph21.9 kmh 29.86 in1011.2 mb 0.00 in0.0 mm 0.00 in0.0 mm 0.00 in0.0 mm
02:15 AM 57.4°F14.1°C 53.5°F11.9°C 87% 5.4 mph E8.7 kmh E 11.8 mph19.0 kmh 29.86 in1011.2 mb 0.00 in0.0 mm 0.00 in0.0 mm 0.00 in0.0 mm
02:30 AM 57.7°F14.3°C 53.9°F12.2°C 87% 7.5 mph ESE12.1 kmh ESE 14.0 mph22.5 kmh 29.89 in1012.2 mb 0.00 in0.0 mm 0.00 in0.0 mm 0.00 in0.0 mm
02:45 AM 57.7°F14.3°C 54.2°F12.3°C 88% 6.7 mph E10.8 kmh E 12.9 mph20.8 kmh 29.86 in1011.2 mb 0.00 in0.0 mm 0.00 in0.0 mm 0.00 in0.0 mm
03:00 AM 57.7°F14.3°C 53.9°F12.2°C 87% 4.6 mph E7.4 kmh E 12.9 mph20.8 kmh 29.86 in1011.2 mb 0.00 in0.0 mm 0.00 in0.0 mm 0.00 in0.0 mm
03:15 AM 57.6°F14.2°C 54.0°F12.2°C 88% 3.5 mph E5.6 kmh E 9.3 mph15.0 kmh 29.86 in1011.2 mb 0.00 in0.0 mm 0.00 in0.0 mm 0.00 in0.0 mm
03:30 AM 57.6°F14.2°C 54.0°F12.2°C 88% 4.9 mph E7.9 kmh E 10.4 mph16.7 kmh 29.83 in1010.2 mb 0.00 in0.0 mm 0.00 in0.0 mm 0.00 in0.0 mm
03:45 AM 57.7°F14.3°C 54.2°F12.3°C 88% 4.4 mph E7.1 kmh E 10.0 mph16.1 kmh 29.83 in1010.2 mb 0.00 in0.0 mm 0.00 in0.0 mm 0.00 in0.0 mm
04:00 AM 57.7°F14.3°C 54.5°F12.5°C 89% 4.9 mph E7.9 kmh E 12.9 mph20.8 kmh 29.83 in1010.2 mb 0.00 in0.0 mm 0.00 in0.0 mm 0.00 in0.0 mm
04:15 AM 57.9°F14.4°C 54.7°F12.6°C 89% 5.3 mph E8.5 kmh E 12.9 mph20.8 kmh 29.83 in1010.2 mb 0.00 in0.0 mm 0.00 in0.0 mm 0.00 in0.0 mm
04:30 AM 58.3°F14.6°C 55.1°F12.8°C 89% 6.0 mph E9.7 kmh E 12.5 mph20.1 kmh 29.83 in1010.2 mb 0.00 in0.0 mm 0.00 in0.0 mm 0.00 in0.0 mm
04:45 AM 58.5°F14.7°C 55.2°F12.9°C 89% 6.8 mph E10.9 kmh E 15.0 mph24.1 kmh 29.83 in1010.2 mb 0.00 in0.0 mm 0.00 in0.0 mm 0.00 in0.0 mm
05:00 AM 58.5°F14.7°C 55.5°F13.1°C 90% 6.0 mph E9.7 kmh E 10.4 mph16.7 kmh 29.83 in1010.2 mb 0.00 in0.0 mm 0.00 in0.0 mm 0.00 in0.0 mm
05:15 AM 58.5°F14.7°C 55.5°F13.1°C 90% 6.1 mph E9.8 kmh E 12.2 mph19.6 kmh 29.83 in1010.2 mb 0.00 in0.0 mm 0.00 in0.0 mm 0.00 in0.0 mm
05:30 AM 58.8°F14.9°C 55.9°F13.3°C 90% 6.7 mph E10.8 kmh E 14.3 mph23.0 kmh 29.83 in1010.2 mb 0.00 in0.0 mm 0.00 in0.0 mm 0.00 in0.0 mm
05:45 AM 59.0°F15.0°C 56.1°F13.4°C 90% 5.4 mph E8.7 kmh E 12.9 mph20.8 kmh 29.83 in1010.2 mb 0.00 in0.0 mm 0.00 in0.0 mm 0.00 in0.0 mm
06:00 AM 59.4°F15.2°C 56.4°F13.6°C 90% 5.6 mph E9.0 kmh E 11.1 mph17.9 kmh 29.83 in1010.2 mb 0.00 in0.0 mm 0.00 in0.0 mm 0.00 in0.0 mm
06:15 AM 59.7°F15.4°C 56.8°F13.8°C 90% 5.4 mph E8.7 kmh E 8.9 mph14.3 kmh 29.83 in1010.2 mb 0.00 in0.0 mm 0.00 in0.0 mm 0.00 in0.0 mm
06:30 AM 60.4°F15.8°C 57.5°F14.2°C 90% 4.0 mph E6.4 kmh E 7.9 mph12.7 kmh 29.83 in1010.2 mb 0.00 in0.0 mm 0.00 in0.0 mm 0.00 in0.0 mm
06:45 AM 61.0°F16.1°C 58.0°F14.4°C 90% 6.4 mph E10.3 kmh E 7.9 mph12.7 kmh 29.80 in1009.1 mb 0.00 in0.0 mm 0.00 in0.0 mm 0.00 in0.0 mm
08:22 AM 61.5°F16.4°C 58.6°F14.8°C 90% 7.9 mph E12.7 kmh E 9.7 mph15.6 kmh 29.83 in1010.2 mb 0.00 in0.0 mm 0.00 in0.0 mm 0.00 in0.0 mm
08:32 AM 61.7°F16.5°C 58.7°F14.8°C 90% 4.9 mph E7.9 kmh E 6.1 mph9.8 kmh 29.83 in1010.2 mb 0.00 in0.0 mm 0.00 in0.0 mm 0.00 in0.0 mm
08:42 AM 61.9°F16.6°C 58.9°F14.9°C 90% 13.4 mph E21.6 kmh E 16.5 mph26.6 kmh 29.83 in1010.2 mb 0.00 in0.0 mm 0.00 in0.0 mm 0.00 in0.0 mm
08:52 AM 62.2°F16.8°C 59.0°F15.0°C 89% 9.3 mph E15.0 kmh E 11.5 mph18.5 kmh 29.80 in1009.1 mb 0.00 in0.0 mm 0.00 in0.0 mm 0.00 in0.0 mm
09:02 AM 62.8°F17.1°C 59.5°F15.3°C 89% 8.4 mph ESE13.5 kmh ESE 10.4 mph16.7 kmh 29.80 in1009.1 mb 0.00 in0.0 mm 0.00 in0.0 mm 0.00 in0.0 mm
09:12 AM 63.5°F17.5°C 59.9°F15.5°C 88% 13.1 mph E21.1 kmh E 16.1 mph25.9 kmh 29.80 in1009.1 mb 0.00 in0.0 mm 0.00 in0.0 mm 0.00 in0.0 mm
09:22 AM 63.7°F17.6°C 59.4°F15.2°C 86% 13.4 mph E21.6 kmh E 16.8 mph27.0 kmh 29.80 in1009.1 mb 0.00 in0.0 mm 0.00 in0.0 mm 0.00 in0.0 mm
09:32 AM 64.6°F18.1°C 60.3°F15.7°C 86% 8.4 mph E13.5 kmh E 10.4 mph16.7 kmh 29.80 in1009.1 mb 0.00 in0.0 mm 0.00 in0.0 mm 0.00 in0.0 mm
09:42 AM 64.8°F18.2°C 59.8°F15.4°C 84% 7.9 mph E12.7 kmh E 9.7 mph15.6 kmh 29.80 in1009.1 mb 0.00 in0.0 mm 0.00 in0.0 mm 0.00 in0.0 mm
09:52 AM 65.1°F18.4°C 59.8°F15.4°C 83% 9.9 mph E15.9 kmh E 12.2 mph19.6 kmh 29.80 in1009.1 mb 0.00 in0.0 mm 0.00 in0.0 mm 0.00 in0.0 mm
10:02 AM 65.8°F18.8°C 60.5°F15.8°C 83% 4.1 mph SE6.6 kmh SE 5.0 mph8.0 kmh 29.80 in1009.1 mb 0.00 in0.0 mm 0.00 in0.0 mm 0.00 in0.0 mm
10:12 AM 66.4°F19.1°C 60.4°F15.8°C 81% 5.8 mph E9.3 kmh E 7.2 mph11.6 kmh 29.80 in1009.1 mb 0.00 in0.0 mm 0.00 in0.0 mm 0.00 in0.0 mm
10:22 AM 67.1°F19.5°C 60.4°F15.8°C 79% 7.6 mph E12.2 kmh E 9.3 mph15.0 kmh 29.80 in1009.1 mb 0.00 in0.0 mm 0.00 in0.0 mm 0.00 in0.0 mm
10:32 AM 67.6°F19.8°C 60.5°F15.8°C 78% 10.5 mph E16.9 kmh E 12.9 mph20.8 kmh 29.77 in1008.1 mb 0.00 in0.0 mm 0.00 in0.0 mm 0.00 in0.0 mm
10:42 AM 68.4°F20.2°C 61.2°F16.2°C 78% 4.9 mph SE7.9 kmh SE 6.1 mph9.8 kmh 29.77 in1008.1 mb 0.00 in0.0 mm 0.00 in0.0 mm 0.00 in0.0 mm
10:52 AM 68.4°F20.2°C 59.7°F15.4°C 74% 7.6 mph E12.2 kmh E 12.5 mph20.1 kmh 29.80 in1009.1 mb 0.00 in0.0 mm 0.00 in0.0 mm 0.00 in0.0 mm
11:02 AM 68.5°F20.3°C 59.5°F15.3°C 73% 13.1 mph E21.1 kmh E 16.1 mph25.9 kmh 29.80 in1009.1 mb 0.00 in0.0 mm 0.00 in0.0 mm 0.00 in0.0 mm
11:12 AM 69.1°F20.6°C 59.7°F15.4°C 72% 4.7 mph E7.6 kmh E 5.7 mph9.2 kmh 29.80 in1009.1 mb 0.00 in0.0 mm 0.00 in0.0 mm 0.00 in0.0 mm
11:22 AM 68.7°F20.4°C 59.3°F15.2°C 72% 6.4 mph E10.3 kmh E 7.9 mph12.7 kmh 29.77 in1008.1 mb 0.00 in0.0 mm 0.00 in0.0 mm 0.00 in0.0 mm
11:32 AM 69.1°F20.6°C 59.7°F15.4°C 72% 19.2 mph ESE30.9 kmh ESE 23.6 mph38.0 kmh 29.77 in1008.1 mb 0.00 in0.0 mm 0.00 in0.0 mm 0.00 in0.0 mm
11:42 AM 69.3°F20.7°C 59.1°F15.1°C 70% 13.1 mph E21.1 kmh E 16.1 mph25.9 kmh 29.77 in1008.1 mb 0.00 in0.0 mm 0.00 in0.0 mm 0.00 in0.0 mm
11:52 AM 69.6°F20.9°C 59.8°F15.4°C 71% 10.5 mph SE16.9 kmh SE 12.9 mph20.8 kmh 29.80 in1009.1 mb 0.00 in0.0 mm 0.00 in0.0 mm 0.00 in0.0 mm
12:02 PM 70.0°F21.1°C 58.9°F14.9°C 68% 13.1 mph E21.1 kmh E 16.1 mph25.9 kmh 29.77 in1008.1 mb 0.00 in0.0 mm 0.00 in0.0 mm 0.00 in0.0 mm
12:12 PM 70.3°F21.3°C 59.3°F15.2°C 68% 9.3 mph SE15.0 kmh SE 11.5 mph18.5 kmh 29.77 in1008.1 mb 0.00 in0.0 mm 0.00 in0.0 mm 0.00 in0.0 mm
12:22 PM 70.5°F21.4°C 59.4°F15.2°C 68% 9.5 mph ESE15.3 kmh ESE 11.8 mph19.0 kmh 29.83 in1010.2 mb 0.00 in0.0 mm 0.00 in0.0 mm 0.00 in0.0 mm
12:32 PM 70.0°F21.1°C 58.5°F14.7°C 67% 6.4 mph E10.3 kmh E 7.9 mph12.7 kmh 29.80 in1009.1 mb 0.00 in0.0 mm 0.00 in0.0 mm 0.00 in0.0 mm
12:42 PM 70.2°F21.2°C 58.7°F14.8°C 67% 9.6 mph E15.4 kmh E 11.8 mph19.0 kmh 29.80 in1009.1 mb 0.00 in0.0 mm 0.00 in0.0 mm 0.00 in0.0 mm
12:52 PM 70.2°F21.2°C 58.7°F14.8°C 67% 5.5 mph E8.9 kmh E 6.8 mph10.9 kmh 29.80 in1009.1 mb 0.00 in0.0 mm 0.00 in0.0 mm 0.00 in0.0 mm
01:02 PM 70.2°F21.2°C 58.7°F14.8°C 67% 4.1 mph E6.6 kmh E 5.0 mph8.0 kmh 29.80 in1009.1 mb 0.00 in0.0 mm 0.00 in0.0 mm 0.00 in0.0 mm
01:12 PM 70.5°F21.4°C 59.4°F15.2°C 68% 4.7 mph NE7.6 kmh NE 5.7 mph9.2 kmh 29.80 in1009.1 mb 0.00 in0.0 mm 0.00 in0.0 mm 0.00 in0.0 mm
01:22 PM 70.7°F21.5°C 59.2°F15.1°C 67% 8.1 mph E13.0 kmh E 10.0 mph16.1 kmh 29.80 in1009.1 mb 0.00 in0.0 mm 0.00 in0.0 mm 0.00 in0.0 mm
01:32 PM 71.8°F22.1°C 59.8°F15.4°C 66% 7.6 mph SE12.2 kmh SE 9.3 mph15.0 kmh 29.80 in1009.1 mb 0.00 in0.0 mm 0.00 in0.0 mm 0.00 in0.0 mm
01:42 PM 71.8°F22.1°C 58.9°F14.9°C 64% 10.2 mph E16.4 kmh E 12.5 mph20.1 kmh 29.80 in1009.1 mb 0.00 in0.0 mm 0.00 in0.0 mm 0.00 in0.0 mm
01:52 PM 70.9°F21.6°C 57.7°F14.3°C 63% 8.7 mph ESE14.0 kmh ESE 12.5 mph20.1 kmh 29.80 in1009.1 mb 0.00 in0.0 mm 0.00 in0.0 mm 0.00 in0.0 mm
02:02 PM 69.8°F21.0°C 56.6°F13.7°C 63% 8.4 mph SE13.5 kmh SE 10.4 mph16.7 kmh 29.80 in1009.1 mb 0.00 in0.0 mm 0.00 in0.0 mm 0.00 in0.0 mm
02:12 PM 69.3°F20.7°C 57.0°F13.9°C 65% 7.0 mph E11.3 kmh E 8.6 mph13.8 kmh 29.80 in1009.1 mb 0.00 in0.0 mm 0.00 in0.0 mm 0.00 in0.0 mm
02:22 PM 68.7°F20.4°C 56.5°F13.6°C 65% 8.4 mph E13.5 kmh E 10.4 mph16.7 kmh 29.80 in1009.1 mb 0.00 in0.0 mm 0.00 in0.0 mm 0.00 in0.0 mm
02:32 PM 68.7°F20.4°C 57.3°F14.1°C 67% 15.7 mph ESE25.3 kmh ESE 19.3 mph31.1 kmh 29.80 in1009.1 mb 0.00 in0.0 mm 0.00 in0.0 mm 0.00 in0.0 mm
02:42 PM 67.8°F19.9°C 57.7°F14.3°C 70% 9.9 mph ESE15.9 kmh ESE 12.2 mph19.6 kmh 29.80 in1009.1 mb 0.00 in0.0 mm 0.00 in0.0 mm 0.00 in0.0 mm
02:52 PM 67.3°F19.6°C 58.7°F14.8°C 74% 7.0 mph E11.3 kmh E 8.6 mph13.8 kmh 29.80 in1009.1 mb 0.00 in0.0 mm 0.00 in0.0 mm 0.00 in0.0 mm
03:02 PM 67.5°F19.7°C 59.6°F15.3°C 76% 7.9 mph E12.7 kmh E 9.7 mph15.6 kmh 29.80 in1009.1 mb 0.00 in0.0 mm 0.00 in0.0 mm 0.00 in0.0 mm
03:12 PM 67.8°F19.9°C 60.3°F15.7°C 77% 9.3 mph E15.0 kmh E 11.5 mph18.5 kmh 29.80 in1009.1 mb 0.00 in0.0 mm 0.00 in0.0 mm 0.00 in0.0 mm
03:22 PM 68.0°F20.0°C 60.5°F15.8°C 77% 7.9 mph E12.7 kmh E 11.5 mph18.5 kmh 29.80 in1009.1 mb 0.00 in0.0 mm 0.00 in0.0 mm 0.00 in0.0 mm
03:32 PM 68.2°F20.1°C 60.3°F15.7°C 76% 4.9 mph E7.9 kmh E 6.1 mph9.8 kmh 29.77 in1008.1 mb 0.00 in0.0 mm 0.00 in0.0 mm 0.00 in0.0 mm
03:42 PM 68.0°F20.0°C 60.2°F15.7°C 76% 3.8 mph E6.1 kmh E 4.7 mph7.6 kmh 29.77 in1008.1 mb 0.00 in0.0 mm 0.00 in0.0 mm 0.00 in0.0 mm
03:52 PM 68.0°F20.0°C 60.2°F15.7°C 76% 5.5 mph NE8.9 kmh NE 6.8 mph10.9 kmh 29.77 in1008.1 mb 0.00 in0.0 mm 0.00 in0.0 mm 0.00 in0.0 mm
04:02 PM 68.0°F20.0°C 60.5°F15.8°C 77% 6.4 mph SE10.3 kmh SE 7.9 mph12.7 kmh 29.74 in1007.1 mb 0.00 in0.0 mm 0.00 in0.0 mm 0.00 in0.0 mm
04:12 PM 68.0°F20.0°C 60.5°F15.8°C 77% 4.1 mph E6.6 kmh E 5.0 mph8.0 kmh 29.74 in1007.1 mb 0.00 in0.0 mm 0.00 in0.0 mm 0.00 in0.0 mm
04:22 PM 67.8°F19.9°C 60.3°F15.7°C 77% 7.3 mph E11.7 kmh E 8.9 mph14.3 kmh 29.71 in1006.1 mb 0.00 in0.0 mm 0.00 in0.0 mm 0.00 in0.0 mm
04:32 PM 67.6°F19.8°C 60.2°F15.7°C 77% 5.5 mph E8.9 kmh E 6.8 mph10.9 kmh 29.74 in1007.1 mb 0.00 in0.0 mm 0.00 in0.0 mm 0.00 in0.0 mm
04:42 PM 67.3°F19.6°C 59.8°F15.4°C 77% 3.5 mph E5.6 kmh E 4.3 mph6.9 kmh 29.74 in1007.1 mb 0.00 in0.0 mm 0.00 in0.0 mm 0.00 in0.0 mm
04:52 PM 66.9°F19.4°C 59.8°F15.4°C 78% 4.4 mph E7.1 kmh E 6.4 mph10.3 kmh 29.74 in1007.1 mb 0.00 in0.0 mm 0.00 in0.0 mm 0.00 in0.0 mm
05:02 PM 66.7°F19.3°C 59.7°F15.4°C 78% 5.2 mph E8.4 kmh E 6.4 mph10.3 kmh 29.74 in1007.1 mb 0.00 in0.0 mm 0.00 in0.0 mm 0.00 in0.0 mm
05:12 PM 66.6°F19.2°C 59.8°F15.4°C 79% 5.2 mph E8.4 kmh E 6.4 mph10.3 kmh 29.74 in1007.1 mb 0.00 in0.0 mm 0.00 in0.0 mm 0.00 in0.0 mm
05:22 PM 66.4°F19.1°C 60.0°F15.6°C 80% 7.6 mph E12.2 kmh E 9.3 mph15.0 kmh 29.71 in1006.1 mb 0.00 in0.0 mm 0.00 in0.0 mm 0.00 in0.0 mm
05:32 PM 66.2°F19.0°C 59.8°F15.4°C 80% 4.1 mph E6.6 kmh E 5.0 mph8.0 kmh 29.74 in1007.1 mb 0.00 in0.0 mm 0.00 in0.0 mm 0.00 in0.0 mm
05:42 PM 66.2°F19.0°C 59.8°F15.4°C 80% 6.1 mph E9.8 kmh E 7.5 mph12.1 kmh 29.74 in1007.1 mb 0.00 in0.0 mm 0.00 in0.0 mm 0.00 in0.0 mm
05:52 PM 66.0°F18.9°C 60.0°F15.6°C 81% 5.5 mph E8.9 kmh E 6.8 mph10.9 kmh 29.77 in1008.1 mb 0.00 in0.0 mm 0.00 in0.0 mm 0.00 in0.0 mm
06:02 PM 65.8°F18.8°C 59.8°F15.4°C 81% 5.5 mph NE8.9 kmh NE 6.8 mph10.9 kmh 29.74 in1007.1 mb 0.00 in0.0 mm 0.00 in0.0 mm 0.00 in0.0 mm
06:12 PM 65.8°F18.8°C 59.8°F15.4°C 81% 5.2 mph E8.4 kmh E 6.4 mph10.3 kmh 29.74 in1007.1 mb 0.00 in0.0 mm 0.00 in0.0 mm 0.00 in0.0 mm
06:22 PM 65.7°F18.7°C 59.7°F15.4°C 81% 9.2 mph E14.8 kmh E 16.1 mph25.9 kmh 29.74 in1007.1 mb 0.00 in0.0 mm 0.00 in0.0 mm 0.00 in0.0 mm
06:32 PM 65.5°F18.6°C 59.5°F15.3°C 81% 3.8 mph E6.1 kmh E 4.7 mph7.6 kmh 29.74 in1007.1 mb 0.00 in0.0 mm 0.00 in0.0 mm 0.00 in0.0 mm
06:42 PM 65.3°F18.5°C 59.3°F15.2°C 81% 4.4 mph SE7.1 kmh SE 5.4 mph8.7 kmh 29.74 in1007.1 mb 0.00 in0.0 mm 0.00 in0.0 mm 0.00 in0.0 mm
06:52 PM 65.1°F18.4°C 59.1°F15.1°C 81% 5.5 mph E8.9 kmh E 6.8 mph10.9 kmh 29.71 in1006.1 mb 0.00 in0.0 mm 0.00 in0.0 mm 0.00 in0.0 mm
07:02 PM 64.9°F18.3°C 59.0°F15.0°C 81% 4.1 mph E6.6 kmh E 5.0 mph8.0 kmh 29.71 in1006.1 mb 0.00 in0.0 mm 0.00 in0.0 mm 0.00 in0.0 mm
07:12 PM 64.8°F18.2°C 59.1°F15.1°C 82% 8.1 mph SE13.0 kmh SE 10.0 mph16.1 kmh 29.71 in1006.1 mb 0.00 in0.0 mm 0.00 in0.0 mm 0.00 in0.0 mm
07:22 PM 64.8°F18.2°C 59.1°F15.1°C 82% 7.3 mph NE11.7 kmh NE 8.9 mph14.3 kmh 29.71 in1006.1 mb 0.00 in0.0 mm 0.00 in0.0 mm 0.00 in0.0 mm
07:32 PM 64.8°F18.2°C 59.1°F15.1°C 82% 8.1 mph SE13.0 kmh SE 10.0 mph16.1 kmh 29.74 in1007.1 mb 0.00 in0.0 mm 0.00 in0.0 mm 0.00 in0.0 mm
07:42 PM 64.8°F18.2°C 59.1°F15.1°C 82% 7.6 mph SE12.2 kmh SE 9.3 mph15.0 kmh 29.74 in1007.1 mb 0.00 in0.0 mm 0.00 in0.0 mm 0.00 in0.0 mm
07:52 PM 64.6°F18.1°C 59.0°F15.0°C 82% 5.8 mph ESE9.3 kmh ESE 9.3 mph15.0 kmh 29.74 in1007.1 mb 0.00 in0.0 mm 0.00 in0.0 mm 0.00 in0.0 mm
08:02 PM 64.6°F18.1°C 59.0°F15.0°C 82% 5.5 mph S8.9 kmh S 6.8 mph10.9 kmh 29.74 in1007.1 mb 0.00 in0.0 mm 0.00 in0.0 mm 0.00 in0.0 mm
08:12 PM 64.2°F17.9°C 58.6°F14.8°C 82% 7.9 mph S12.7 kmh S 9.7 mph15.6 kmh 29.74 in1007.1 mb 0.00 in0.0 mm 0.00 in0.0 mm 0.00 in0.0 mm
08:22 PM 63.9°F17.7°C 58.3°F14.6°C 82% 8.1 mph S13.0 kmh S 10.0 mph16.1 kmh 29.74 in1007.1 mb 0.05 in1.3 mm 0.30 in7.6 mm 0.05 in1.3 mm
08:32 PM 63.5°F17.5°C 58.6°F14.8°C 84% 4.4 mph SE7.1 kmh SE 5.4 mph8.7 kmh 29.74 in1007.1 mb 0.09 in2.3 mm 0.24 in6.1 mm 0.09 in2.3 mm
08:42 PM 63.1°F17.3°C 58.2°F14.6°C 84% 7.6 mph S12.2 kmh S 9.3 mph15.0 kmh 29.74 in1007.1 mb 0.09 in2.3 mm 0.00 in0.0 mm 0.09 in2.3 mm
08:52 PM 62.8°F17.1°C 58.2°F14.6°C 85% Calm Calm -- 29.74 in1007.1 mb 0.09 in2.3 mm 0.00 in0.0 mm 0.09 in2.3 mm
09:02 PM 62.6°F17.0°C 58.0°F14.4°C 85% 3.8 mph E6.1 kmh E 4.7 mph7.6 kmh 29.71 in1006.1 mb 0.09 in2.3 mm 0.00 in0.0 mm 0.09 in2.3 mm
09:12 PM 62.4°F16.9°C 58.2°F14.6°C 86% Calm Calm -- 29.71 in1006.1 mb 0.09 in2.3 mm 0.00 in0.0 mm 0.09 in2.3 mm
09:22 PM 62.2°F16.8°C 58.3°F14.6°C 87% 0.7 mph NE1.1 kmh NE 1.8 mph2.9 kmh 29.71 in1006.1 mb 0.05 in1.3 mm 0.00 in0.0 mm 0.09 in2.3 mm
09:32 PM 62.2°F16.8°C 58.3°F14.6°C 87% Calm Calm -- 29.74 in1007.1 mb 0.00 in0.0 mm 0.00 in0.0 mm 0.09 in2.3 mm
09:42 PM 62.2°F16.8°C 58.6°F14.8°C 88% Calm Calm -- 29.74 in1007.1 mb 0.00 in0.0 mm 0.00 in0.0 mm 0.09 in2.3 mm
09:52 PM 62.1°F16.7°C 58.5°F14.7°C 88% Calm Calm -- 29.74 in1007.1 mb 0.00 in0.0 mm 0.00 in0.0 mm 0.09 in2.3 mm
10:02 PM 62.2°F16.8°C 58.6°F14.8°C 88% Calm Calm -- 29.74 in1007.1 mb 0.00 in0.0 mm 0.00 in0.0 mm 0.09 in2.3 mm
10:12 PM 62.2°F16.8°C 59.0°F15.0°C 89% 3.8 mph E6.1 kmh E 4.7 mph7.6 kmh 29.74 in1007.1 mb 0.00 in0.0 mm 0.00 in0.0 mm 0.09 in2.3 mm
10:22 PM 62.2°F16.8°C 59.0°F15.0°C 89% Calm Calm -- 29.74 in1007.1 mb 0.00 in0.0 mm 0.00 in0.0 mm 0.09 in2.3 mm
10:32 PM 62.2°F16.8°C 59.0°F15.0°C 89% 1.7 mph S2.7 kmh S 2.1 mph3.4 kmh 29.74 in1007.1 mb 0.00 in0.0 mm 0.00 in0.0 mm 0.09 in2.3 mm
10:42 PM 62.2°F16.8°C 59.0°F15.0°C 89% 8.4 mph E13.5 kmh E 10.4 mph16.7 kmh 29.74 in1007.1 mb 0.00 in0.0 mm 0.00 in0.0 mm 0.09 in2.3 mm
10:52 PM 62.4°F16.9°C 59.4°F15.2°C 90% 5.5 mph E8.9 kmh E 10.4 mph16.7 kmh 29.74 in1007.1 mb 0.00 in0.0 mm 0.00 in0.0 mm 0.09 in2.3 mm
11:02 PM 62.2°F16.8°C 59.3°F15.2°C 90% 2.0 mph W3.2 kmh W 2.5 mph4.0 kmh 29.74 in1007.1 mb 0.05 in1.3 mm 0.06 in1.5 mm 0.05 in1.3 mm
11:12 PM 61.3°F16.3°C 58.1°F14.5°C 89% 11.1 mph W17.9 kmh W 13.6 mph21.9 kmh 29.74 in1007.1 mb 0.05 in1.3 mm 0.00 in0.0 mm 0.05 in1.3 mm
11:22 PM 60.8°F16.0°C 57.5°F14.2°C 89% 4.1 mph S6.6 kmh S 5.0 mph8.0 kmh 29.77 in1008.1 mb 0.05 in1.3 mm 0.00 in0.0 mm 0.05 in1.3 mm
11:32 PM 60.4°F15.8°C 57.2°F14.0°C 89% 4.1 mph S6.6 kmh S 5.0 mph8.0 kmh 29.77 in1008.1 mb 0.05 in1.3 mm 0.00 in0.0 mm 0.05 in1.3 mm
11:42 PM 60.3°F15.7°C 57.0°F13.9°C 89% 2.6 mph S4.2 kmh S 3.2 mph5.1 kmh 29.77 in1008.1 mb 0.05 in1.3 mm 0.00 in0.0 mm 0.05 in1.3 mm
11:52 PM 59.9°F15.5°C 56.6°F13.7°C 89% Calm Calm -- 29.77 in1008.1 mb 0.05 in1.3 mm 0.00 in0.0 mm 0.05 in1.3 mm